EZY39TU EGGD-EGNT
Flight info
| Callsign | EZY39TU |
|---|---|
| Flight time | 0h 45m |
| Altitude | 26000 |
| Route | BCN P69 DIZIM DCT KISWO/N0424F270 DCT AVTIC DCT ANJAK/N0430F280 N38 NOKIN UP17 POL |
| Aircraft | A320/M-SDE3FGHIRWY/LB1 |
Departure
| Time | 2026-05-08 01:02 |
|---|---|
| Airport | Bristol Airport (EGGD) |
Arrival
| Time | 2026-05-08 01:47 |
|---|---|
| Airport | Newcastle International Airport (EGNT) |
| Time | Latitude | Longitude | Altitude | Speed | Heading |
|---|---|---|---|---|---|
| 2026-05-08 00:45 | 51.38550 | -2.71597 | 612 ft | 0 kts | 356° |
| 2026-05-08 00:54 | 51.38534 | -2.71596 | 625 ft | 4 kts | 356° |
| 2026-05-08 00:54 | 51.38507 | -2.71593 | 622 ft | 4 kts | 356° |
| 2026-05-08 00:55 | 51.38485 | -2.71590 | 622 ft | 2 kts | 356° |
| 2026-05-08 00:55 | 51.38460 | -2.71582 | 625 ft | 4 kts | 330° |
| 2026-05-08 00:55 | 51.38442 | -2.71555 | 622 ft | 4 kts | 282° |
| 2026-05-08 00:55 | 51.38441 | -2.71515 | 620 ft | 4 kts | 266° |
| 2026-05-08 00:56 | 51.38442 | -2.71503 | 620 ft | 2 kts | 266° |
| 2026-05-08 00:58 | 51.38440 | -2.71545 | 622 ft | 13 kts | 266° |
| 2026-05-08 00:58 | 51.38435 | -2.71707 | 612 ft | 15 kts | 266° |
| 2026-05-08 00:58 | 51.38429 | -2.71866 | 606 ft | 14 kts | 270° |
| 2026-05-08 00:58 | 51.38431 | -2.72035 | 606 ft | 22 kts | 269° |
| 2026-05-08 00:59 | 51.38422 | -2.72277 | 612 ft | 21 kts | 267° |
| 2026-05-08 00:59 | 51.38411 | -2.72512 | 619 ft | 22 kts | 265° |
| 2026-05-08 00:59 | 51.38402 | -2.72760 | 615 ft | 23 kts | 268° |
| 2026-05-08 00:59 | 51.38392 | -2.73022 | 615 ft | 25 kts | 266° |
| 2026-05-08 01:00 | 51.38369 | -2.73282 | 622 ft | 21 kts | 232° |
| 2026-05-08 01:00 | 51.38251 | -2.73327 | 623 ft | 14 kts | 160° |
| 2026-05-08 01:00 | 51.38216 | -2.73225 | 627 ft | 0 kts | 88° |
| 2026-05-08 01:01 | 51.38220 | -2.73092 | 626 ft | 45 kts | 87° |
| 2026-05-08 01:01 | 51.38255 | -2.72183 | 626 ft | 115 kts | 86° |
| 2026-05-08 01:01 | 51.38317 | -2.70628 | 801 ft | 150 kts | 86° |
| 2026-05-08 01:02 | 51.38412 | -2.68993 | 1547 ft | 146 kts | 86° |
| 2026-05-08 01:02 | 51.38535 | -2.67372 | 2220 ft | 147 kts | 86° |
| 2026-05-08 01:02 | 51.38680 | -2.65707 | 2758 ft | 155 kts | 86° |
| 2026-05-08 01:02 | 51.38787 | -2.63951 | 3263 ft | 163 kts | 87° |
| 2026-05-08 01:03 | 51.38900 | -2.62131 | 3883 ft | 166 kts | 89° |
| 2026-05-08 01:03 | 51.38918 | -2.60165 | 4198 ft | 186 kts | 92° |
| 2026-05-08 01:03 | 51.38913 | -2.58006 | 4519 ft | 204 kts | 90° |
| 2026-05-08 01:03 | 51.39275 | -2.55774 | 4959 ft | 215 kts | 62° |
| 2026-05-08 01:04 | 51.40397 | -2.54175 | 5001 ft | 231 kts | 25° |
| 2026-05-08 01:04 | 51.42109 | -2.53927 | 5030 ft | 268 kts | 345° |
| 2026-05-08 01:04 | 51.43688 | -2.55545 | 5782 ft | 276 kts | 311° |
| 2026-05-08 01:04 | 51.44889 | -2.57974 | 6727 ft | 279 kts | 304° |
| 2026-05-08 01:05 | 51.45970 | -2.60568 | 7653 ft | 281 kts | 300° |
| 2026-05-08 01:05 | 51.46992 | -2.63202 | 8596 ft | 283 kts | 299° |
| 2026-05-08 01:05 | 51.48032 | -2.65908 | 9555 ft | 285 kts | 298° |
| 2026-05-08 01:05 | 51.49094 | -2.68626 | 10333 ft | 294 kts | 298° |
| 2026-05-08 01:06 | 51.50240 | -2.71518 | 10645 ft | 318 kts | 299° |
| 2026-05-08 01:06 | 51.51473 | -2.74580 | 11154 ft | 332 kts | 300° |
| 2026-05-08 01:06 | 51.52751 | -2.77704 | 11900 ft | 337 kts | 300° |
| 2026-05-08 01:06 | 51.54038 | -2.80826 | 12689 ft | 341 kts | 301° |
| 2026-05-08 01:07 | 51.55361 | -2.84030 | 13480 ft | 345 kts | 301° |
| 2026-05-08 01:07 | 51.56695 | -2.87268 | 14214 ft | 349 kts | 301° |
| 2026-05-08 01:07 | 51.58043 | -2.90555 | 14892 ft | 353 kts | 301° |
| 2026-05-08 01:07 | 51.59381 | -2.93835 | 15567 ft | 356 kts | 301° |
| 2026-05-08 01:08 | 51.60744 | -2.97188 | 16232 ft | 360 kts | 301° |
| 2026-05-08 01:08 | 51.62123 | -3.00583 | 16911 ft | 364 kts | 301° |
| 2026-05-08 01:08 | 51.63521 | -3.04015 | 17587 ft | 368 kts | 301° |
| 2026-05-08 01:08 | 51.64937 | -3.07491 | 18237 ft | 372 kts | 301° |
| 2026-05-08 01:09 | 51.66361 | -3.10998 | 18801 ft | 375 kts | 301° |
| 2026-05-08 01:09 | 51.67799 | -3.14540 | 19377 ft | 379 kts | 301° |
| 2026-05-08 01:09 | 51.69298 | -3.18055 | 19932 ft | 384 kts | 307° |
| 2026-05-08 01:09 | 51.71234 | -3.21073 | 20478 ft | 391 kts | 321° |
| 2026-05-08 01:10 | 51.73598 | -3.23291 | 21011 ft | 398 kts | 335° |
| 2026-05-08 01:10 | 51.76234 | -3.24529 | 21543 ft | 404 kts | 350° |
| 2026-05-08 01:10 | 51.79054 | -3.24690 | 22056 ft | 409 kts | 5° |
| 2026-05-08 01:10 | 51.81890 | -3.24032 | 22584 ft | 413 kts | 8° |
| 2026-05-08 01:11 | 51.84745 | -3.23321 | 23105 ft | 416 kts | 8° |
| 2026-05-08 01:11 | 51.87620 | -3.22602 | 23604 ft | 419 kts | 8° |
| 2026-05-08 01:11 | 51.90513 | -3.21877 | 24035 ft | 422 kts | 8° |
| 2026-05-08 01:11 | 51.93387 | -3.21159 | 24453 ft | 425 kts | 8° |
| 2026-05-08 01:12 | 51.96314 | -3.20429 | 24866 ft | 427 kts | 8° |
| 2026-05-08 01:12 | 51.99278 | -3.19695 | 25275 ft | 430 kts | 7° |
| 2026-05-08 01:12 | 52.02248 | -3.18963 | 25681 ft | 433 kts | 7° |
| 2026-05-08 01:12 | 52.05248 | -3.18422 | 25977 ft | 434 kts | 1° |
| 2026-05-08 01:13 | 52.08271 | -3.18196 | 26057 ft | 434 kts | 1° |
| 2026-05-08 01:13 | 52.11296 | -3.17977 | 26063 ft | 434 kts | 1° |
| 2026-05-08 01:13 | 52.14283 | -3.17760 | 26063 ft | 434 kts | 1° |
| 2026-05-08 01:13 | 52.17307 | -3.17535 | 26063 ft | 434 kts | 1° |
| 2026-05-08 01:14 | 52.20327 | -3.17301 | 26062 ft | 434 kts | 1° |
| 2026-05-08 01:14 | 52.23347 | -3.17061 | 26059 ft | 434 kts | 1° |
| 2026-05-08 01:14 | 52.26363 | -3.16819 | 26061 ft | 434 kts | 1° |
| 2026-05-08 01:14 | 52.29382 | -3.16580 | 26059 ft | 434 kts | 1° |
| 2026-05-08 01:15 | 52.32408 | -3.16349 | 26059 ft | 434 kts | 1° |
| 2026-05-08 01:15 | 52.35432 | -3.16122 | 26063 ft | 434 kts | 1° |
| 2026-05-08 01:15 | 52.38462 | -3.15894 | 26060 ft | 434 kts | 1° |
| 2026-05-08 01:15 | 52.41426 | -3.15668 | 26061 ft | 434 kts | 1° |
| 2026-05-08 01:16 | 52.44451 | -3.15433 | 26060 ft | 434 kts | 1° |
| 2026-05-08 01:16 | 52.47468 | -3.15191 | 26057 ft | 434 kts | 1° |
| 2026-05-08 01:16 | 52.50496 | -3.14945 | 26052 ft | 434 kts | 1° |
| 2026-05-08 01:16 | 52.53509 | -3.14705 | 26050 ft | 434 kts | 1° |
| 2026-05-08 01:17 | 52.56531 | -3.14472 | 26049 ft | 434 kts | 1° |
| 2026-05-08 01:17 | 52.59554 | -3.14237 | 26048 ft | 434 kts | 1° |
| 2026-05-08 01:17 | 52.62538 | -3.14004 | 26050 ft | 434 kts | 1° |
| 2026-05-08 01:17 | 52.65556 | -3.13771 | 26049 ft | 434 kts | 1° |
| 2026-05-08 01:18 | 52.68576 | -3.13519 | 26050 ft | 435 kts | 3° |
| 2026-05-08 01:18 | 52.71565 | -3.12735 | 26051 ft | 436 kts | 13° |
| 2026-05-08 01:18 | 52.74459 | -3.11170 | 26046 ft | 437 kts | 22° |
| 2026-05-08 01:18 | 52.77181 | -3.09082 | 26049 ft | 437 kts | 25° |
| 2026-05-08 01:19 | 52.79928 | -3.06933 | 26048 ft | 437 kts | 25° |
| 2026-05-08 01:19 | 52.82680 | -3.04780 | 26049 ft | 437 kts | 25° |
| 2026-05-08 01:19 | 52.85427 | -3.02634 | 26046 ft | 437 kts | 25° |
| 2026-05-08 01:19 | 52.88186 | -3.00480 | 26056 ft | 448 kts | 25° |
| 2026-05-08 01:20 | 52.91089 | -2.98426 | 26057 ft | 460 kts | 20° |
| 2026-05-08 01:20 | 52.94114 | -2.96573 | 26056 ft | 471 kts | 19° |
| 2026-05-08 01:20 | 52.97187 | -2.94701 | 26056 ft | 481 kts | 19° |
| 2026-05-08 01:20 | 53.00317 | -2.92794 | 26051 ft | 490 kts | 19° |
| 2026-05-08 01:21 | 53.03521 | -2.90837 | 26054 ft | 496 kts | 19° |
| 2026-05-08 01:21 | 53.06715 | -2.88778 | 26050 ft | 499 kts | 24° |
| 2026-05-08 01:21 | 53.09739 | -2.85921 | 26053 ft | 500 kts | 34° |
| 2026-05-08 01:21 | 53.12598 | -2.82614 | 26055 ft | 501 kts | 34° |
| 2026-05-08 01:22 | 53.15461 | -2.79312 | 26056 ft | 501 kts | 34° |
| 2026-05-08 01:22 | 53.18339 | -2.76003 | 26055 ft | 501 kts | 34° |
| 2026-05-08 01:22 | 53.21212 | -2.72696 | 26055 ft | 501 kts | 34° |
| 2026-05-08 01:22 | 53.24082 | -2.69389 | 26055 ft | 501 kts | 34° |
| 2026-05-08 01:23 | 53.26911 | -2.66121 | 26054 ft | 501 kts | 34° |
| 2026-05-08 01:23 | 53.29783 | -2.62811 | 26054 ft | 501 kts | 34° |
| 2026-05-08 01:23 | 53.32653 | -2.59512 | 26051 ft | 501 kts | 34° |
| 2026-05-08 01:23 | 53.35525 | -2.56204 | 26048 ft | 500 kts | 34° |
| 2026-05-08 01:24 | 53.38366 | -2.52920 | 26045 ft | 500 kts | 34° |
| 2026-05-08 01:24 | 53.41231 | -2.49604 | 26044 ft | 500 kts | 34° |
| 2026-05-08 01:24 | 53.44092 | -2.46289 | 26043 ft | 500 kts | 34° |
| 2026-05-08 01:24 | 53.46953 | -2.42964 | 26042 ft | 500 kts | 34° |
| 2026-05-08 01:25 | 53.49817 | -2.39615 | 26040 ft | 500 kts | 35° |
| 2026-05-08 01:25 | 53.52635 | -2.36287 | 26021 ft | 500 kts | 35° |
| 2026-05-08 01:25 | 53.55477 | -2.32904 | 26041 ft | 500 kts | 35° |
| 2026-05-08 01:25 | 53.58307 | -2.29526 | 26043 ft | 500 kts | 35° |
| 2026-05-08 01:26 | 53.60190 | -2.27278 | 26036 ft | 500 kts | 35° |
| 2026-05-08 01:26 | 53.63028 | -2.23893 | 26043 ft | 500 kts | 35° |
| 2026-05-08 01:26 | 53.65876 | -2.20499 | 26043 ft | 500 kts | 35° |
| 2026-05-08 01:26 | 53.68717 | -2.17108 | 26042 ft | 500 kts | 35° |
| 2026-05-08 01:27 | 53.71560 | -2.13708 | 26032 ft | 500 kts | 35° |
| 2026-05-08 01:27 | 53.74502 | -2.10602 | 26029 ft | 499 kts | 26° |
| 2026-05-08 01:27 | 53.77703 | -2.08359 | 26048 ft | 496 kts | 18° |
| 2026-05-08 01:27 | 53.80905 | -2.06471 | 26056 ft | 473 kts | 18° |
| 2026-05-08 01:28 | 53.83939 | -2.04675 | 26054 ft | 452 kts | 18° |
| 2026-05-08 01:28 | 53.86867 | -2.02936 | 26056 ft | 441 kts | 18° |
| 2026-05-08 01:28 | 53.89710 | -2.01249 | 26058 ft | 438 kts | 18° |
| 2026-05-08 01:28 | 53.92582 | -1.99549 | 25901 ft | 434 kts | 18° |
| 2026-05-08 01:29 | 53.95429 | -1.97863 | 25268 ft | 432 kts | 18° |
| 2026-05-08 01:29 | 53.98261 | -1.96183 | 24691 ft | 428 kts | 18° |
| 2026-05-08 01:29 | 54.01068 | -1.94509 | 24124 ft | 425 kts | 18° |
| 2026-05-08 01:29 | 54.03849 | -1.92844 | 23557 ft | 421 kts | 18° |
| 2026-05-08 01:30 | 54.06610 | -1.91184 | 22928 ft | 418 kts | 18° |
| 2026-05-08 01:30 | 54.09341 | -1.89540 | 22335 ft | 415 kts | 18° |
| 2026-05-08 01:30 | 54.12016 | -1.87929 | 21778 ft | 411 kts | 18° |
| 2026-05-08 01:30 | 54.14739 | -1.86512 | 21223 ft | 406 kts | 11° |
| 2026-05-08 01:31 | 54.17510 | -1.85633 | 20646 ft | 403 kts | 8° |
| 2026-05-08 01:31 | 54.20264 | -1.84781 | 20123 ft | 400 kts | 8° |
| 2026-05-08 01:31 | 54.22991 | -1.83934 | 19612 ft | 397 kts | 8° |
| 2026-05-08 01:31 | 54.25705 | -1.83087 | 19115 ft | 394 kts | 8° |
| 2026-05-08 01:32 | 54.28388 | -1.82244 | 18582 ft | 389 kts | 8° |
| 2026-05-08 01:32 | 54.31006 | -1.81418 | 17646 ft | 384 kts | 8° |
| 2026-05-08 01:32 | 54.33620 | -1.80592 | 16727 ft | 379 kts | 8° |
| 2026-05-08 01:32 | 54.36200 | -1.79776 | 15863 ft | 374 kts | 9° |
| 2026-05-08 01:33 | 54.38735 | -1.78974 | 15029 ft | 368 kts | 9° |
| 2026-05-08 01:33 | 54.41240 | -1.78185 | 14198 ft | 363 kts | 9° |
| 2026-05-08 01:33 | 54.43709 | -1.77408 | 13336 ft | 358 kts | 9° |
| 2026-05-08 01:33 | 54.46144 | -1.76640 | 12397 ft | 353 kts | 9° |
| 2026-05-08 01:34 | 54.48552 | -1.75882 | 11492 ft | 350 kts | 9° |
| 2026-05-08 01:34 | 54.50944 | -1.75127 | 10598 ft | 349 kts | 9° |
| 2026-05-08 01:34 | 54.53333 | -1.74369 | 10203 ft | 350 kts | 10° |
| 2026-05-08 01:34 | 54.55668 | -1.73623 | 10051 ft | 333 kts | 10° |
| 2026-05-08 01:35 | 54.57869 | -1.72917 | 9847 ft | 312 kts | 10° |
| 2026-05-08 01:35 | 54.59978 | -1.72237 | 9303 ft | 304 kts | 9° |
| 2026-05-08 01:35 | 54.62039 | -1.71573 | 8690 ft | 299 kts | 11° |
| 2026-05-08 01:35 | 54.63972 | -1.70358 | 8004 ft | 295 kts | 28° |
| 2026-05-08 01:36 | 54.65759 | -1.68630 | 7354 ft | 293 kts | 30° |
| 2026-05-08 01:36 | 54.67505 | -1.66856 | 6734 ft | 290 kts | 30° |
| 2026-05-08 01:36 | 54.69230 | -1.65074 | 6098 ft | 287 kts | 30° |
| 2026-05-08 01:36 | 54.70933 | -1.63298 | 5448 ft | 284 kts | 30° |
| 2026-05-08 01:37 | 54.72611 | -1.61542 | 5090 ft | 282 kts | 30° |
| 2026-05-08 01:37 | 54.74294 | -1.59782 | 5023 ft | 283 kts | 30° |
| 2026-05-08 01:37 | 54.75980 | -1.58016 | 5030 ft | 284 kts | 30° |
| 2026-05-08 01:37 | 54.77655 | -1.56268 | 5018 ft | 285 kts | 30° |
| 2026-05-08 01:38 | 54.79351 | -1.54499 | 5017 ft | 284 kts | 30° |
| 2026-05-08 01:38 | 54.81046 | -1.52738 | 5016 ft | 284 kts | 30° |
| 2026-05-08 01:38 | 54.82743 | -1.50976 | 5018 ft | 284 kts | 30° |
| 2026-05-08 01:38 | 54.84443 | -1.49214 | 5018 ft | 284 kts | 30° |
| 2026-05-08 01:39 | 54.86146 | -1.47452 | 5016 ft | 284 kts | 29° |
| 2026-05-08 01:39 | 54.87943 | -1.46005 | 5014 ft | 284 kts | 21° |
| 2026-05-08 01:39 | 54.89778 | -1.44734 | 5012 ft | 284 kts | 20° |
| 2026-05-08 01:39 | 54.91623 | -1.43474 | 5013 ft | 284 kts | 20° |
| 2026-05-08 01:40 | 54.93369 | -1.42290 | 4992 ft | 283 kts | 20° |
| 2026-05-08 01:40 | 54.95184 | -1.41058 | 4565 ft | 282 kts | 20° |
| 2026-05-08 01:40 | 54.96995 | -1.39832 | 4152 ft | 280 kts | 20° |
| 2026-05-08 01:40 | 54.98807 | -1.38608 | 3795 ft | 276 kts | 20° |
| 2026-05-08 01:41 | 55.00562 | -1.37416 | 3665 ft | 264 kts | 20° |
| 2026-05-08 01:41 | 55.02267 | -1.36472 | 3535 ft | 250 kts | 5° |
| 2026-05-08 01:41 | 55.03946 | -1.36620 | 3413 ft | 235 kts | 340° |
| 2026-05-08 01:41 | 55.05318 | -1.37742 | 3291 ft | 220 kts | 318° |
| 2026-05-08 01:42 | 55.06455 | -1.39526 | 3154 ft | 211 kts | 311° |
| 2026-05-08 01:42 | 55.07512 | -1.41265 | 3021 ft | 205 kts | 311° |
| 2026-05-08 01:42 | 55.08472 | -1.43000 | 2990 ft | 191 kts | 299° |
| 2026-05-08 01:42 | 55.09039 | -1.44924 | 2926 ft | 174 kts | 281° |
| 2026-05-08 01:43 | 55.09227 | -1.46925 | 2776 ft | 161 kts | 264° |
| 2026-05-08 01:43 | 55.09077 | -1.48802 | 2598 ft | 152 kts | 249° |
| 2026-05-08 01:43 | 55.08678 | -1.50467 | 2415 ft | 147 kts | 242° |
| 2026-05-08 01:43 | 55.08258 | -1.52064 | 2219 ft | 144 kts | 241° |
| 2026-05-08 01:44 | 55.07858 | -1.53585 | 2039 ft | 136 kts | 241° |
| 2026-05-08 01:44 | 55.07475 | -1.55042 | 1854 ft | 129 kts | 240° |
| 2026-05-08 01:44 | 55.07112 | -1.56419 | 1690 ft | 122 kts | 240° |
| 2026-05-08 01:44 | 55.06769 | -1.57722 | 1528 ft | 116 kts | 240° |
| 2026-05-08 01:45 | 55.06435 | -1.58988 | 1370 ft | 114 kts | 241° |
| 2026-05-08 01:45 | 55.06107 | -1.60228 | 1198 ft | 113 kts | 241° |
| 2026-05-08 01:45 | 55.05771 | -1.61499 | 1047 ft | 120 kts | 242° |
| 2026-05-08 01:45 | 55.05410 | -1.62856 | 850 ft | 125 kts | 242° |
| 2026-05-08 01:46 | 55.05049 | -1.64227 | 665 ft | 125 kts | 243° |
| 2026-05-08 01:46 | 55.04684 | -1.65612 | 511 ft | 126 kts | 243° |
| 2026-05-08 01:46 | 55.04322 | -1.66993 | 350 ft | 124 kts | 243° |
| 2026-05-08 01:46 | 55.03966 | -1.68324 | 254 ft | 110 kts | 244° |
| 2026-05-08 01:47 | 55.03700 | -1.69315 | 264 ft | 54 kts | 246° |
| 2026-05-08 01:47 | 55.03590 | -1.69744 | 270 ft | 28 kts | 253° |
| 2026-05-08 01:47 | 55.03589 | -1.70027 | 271 ft | 21 kts | 274° |
| 2026-05-08 01:48 | 55.03597 | -1.70495 | 267 ft | 15 kts | 265° |
| 2026-05-08 01:48 | 55.03594 | -1.70684 | 268 ft | 16 kts | 273° |
| 2026-05-08 01:48 | 55.03622 | -1.70813 | 268 ft | 10 kts | 316° |
| 2026-05-08 01:48 | 55.03657 | -1.70844 | 268 ft | 0 kts | 355° |